createdAt,value
2018-09-03T00:00:51.395Z,14.90
2018-09-03T00:01:51.546Z,14.70
2018-09-03T00:02:51.701Z,15.20
2018-09-03T00:03:51.855Z,15.30
2018-09-03T00:04:52.010Z,14.50
2018-09-03T00:05:52.162Z,15.00
2018-09-03T00:06:52.314Z,14.70
2018-09-03T00:07:52.465Z,14.70
2018-09-03T00:08:52.616Z,15.30
2018-09-03T00:09:52.772Z,15.60
2018-09-03T00:10:52.921Z,15.30
2018-09-03T00:11:53.073Z,15.10
2018-09-03T00:12:53.228Z,14.60
2018-09-03T00:13:53.379Z,14.60
2018-09-03T00:14:53.533Z,15.50
2018-09-03T00:15:53.684Z,15.30
2018-09-03T00:16:53.835Z,14.80
2018-09-03T00:17:53.989Z,16.10
2018-09-03T00:18:54.142Z,15.20
2018-09-03T00:19:54.293Z,15.50
2018-09-03T00:20:54.445Z,15.20
2018-09-03T00:21:54.598Z,16.10
2018-09-03T00:22:54.751Z,16.40
2018-09-03T00:23:54.902Z,16.60
2018-09-03T00:24:55.060Z,15.80
2018-09-03T00:25:55.209Z,15.40
2018-09-03T00:26:55.362Z,16.20
2018-09-03T00:27:55.513Z,15.70
2018-09-03T00:28:55.668Z,16.50
2018-09-03T00:29:55.819Z,16.90
2018-09-03T00:30:55.973Z,17.40
2018-09-03T00:31:56.124Z,16.30
2018-09-03T00:32:56.279Z,16.00
2018-09-03T00:33:56.431Z,16.90
2018-09-03T00:34:56.581Z,16.50
2018-09-03T00:35:56.735Z,16.60
2018-09-03T00:36:56.888Z,15.80
2018-09-03T00:37:57.039Z,17.10
2018-09-03T00:38:57.192Z,16.40
2018-09-03T00:39:57.342Z,15.90
2018-09-03T00:40:57.495Z,15.80
2018-09-03T00:41:57.648Z,16.30
2018-09-03T00:42:57.805Z,16.70
2018-09-03T00:43:57.950Z,16.90
2018-09-03T00:44:58.104Z,17.30
2018-09-03T00:45:58.261Z,15.70
2018-09-03T00:46:58.414Z,16.10
2018-09-03T00:47:58.565Z,15.90
2018-09-03T00:48:58.715Z,16.00
2018-09-03T00:49:58.869Z,17.40
2018-09-03T00:50:59.018Z,16.90
2018-09-03T00:51:59.172Z,17.20
2018-09-03T00:52:59.325Z,17.10
2018-09-03T00:53:59.481Z,16.90
2018-09-03T00:54:59.627Z,16.50
2018-09-03T00:55:59.780Z,17.70
2018-09-03T00:56:59.933Z,16.60
2018-09-03T00:58:00.086Z,17.00
2018-09-03T00:59:00.240Z,17.60
2018-09-03T01:00:00.393Z,17.10
2018-09-03T01:01:00.545Z,17.30
2018-09-03T01:02:00.700Z,17.60
2018-09-03T01:03:00.860Z,16.70
2018-09-03T01:04:01.007Z,16.80
2018-09-03T01:05:01.159Z,16.80
2018-09-03T01:06:01.321Z,16.30
2018-09-03T01:07:01.474Z,16.20
2018-09-03T01:08:01.627Z,17.70
2018-09-03T01:09:01.780Z,17.60
2018-09-03T01:10:01.931Z,17.00
2018-09-03T01:11:02.086Z,18.00
2018-09-03T01:12:02.237Z,17.20
2018-09-03T01:13:02.391Z,17.70
2018-09-03T01:14:02.546Z,16.90
2018-09-03T01:15:02.698Z,16.70
2018-09-03T01:16:02.850Z,16.90
2018-09-03T01:17:03.002Z,17.10
2018-09-03T01:18:03.154Z,16.70
2018-09-03T01:19:03.306Z,16.00
2018-09-03T01:20:03.457Z,17.10
2018-09-03T01:21:03.610Z,17.90
2018-09-03T01:22:03.763Z,16.70
2018-09-03T01:23:03.917Z,17.30
2018-09-03T01:24:04.073Z,17.10
2018-09-03T01:25:04.224Z,17.10
2018-09-03T01:26:04.377Z,16.40
2018-09-03T01:27:04.530Z,17.40
2018-09-03T01:28:04.684Z,16.10
2018-09-03T01:29:04.839Z,16.60
2018-09-03T01:30:04.988Z,16.10
2018-09-03T01:31:05.141Z,16.20
2018-09-03T01:32:05.292Z,15.90
2018-09-03T01:33:05.445Z,16.20
2018-09-03T01:34:05.605Z,16.10
2018-09-03T01:35:05.785Z,17.40
2018-09-03T01:36:05.928Z,16.30
2018-09-03T01:37:06.085Z,15.50
2018-09-03T01:38:06.235Z,16.80
2018-09-03T01:39:06.387Z,15.90
2018-09-03T01:40:06.540Z,15.70
2018-09-03T01:41:06.693Z,16.90
2018-09-03T01:42:06.848Z,15.60
2018-09-03T01:43:07.002Z,15.60
2018-09-03T01:44:07.153Z,15.70
2018-09-03T01:45:07.309Z,16.10
2018-09-03T01:46:07.459Z,16.30
2018-09-03T01:47:07.613Z,16.20
2018-09-03T01:48:07.768Z,16.40
2018-09-03T01:49:07.921Z,16.90
2018-09-03T01:50:08.077Z,16.60
2018-09-03T01:51:08.227Z,17.40
2018-09-03T01:52:08.382Z,16.10
2018-09-03T01:53:08.535Z,17.50
2018-09-03T01:54:08.688Z,16.60
2018-09-03T01:55:08.842Z,17.90
2018-09-03T01:56:08.998Z,17.10
2018-09-03T01:57:09.151Z,16.70
2018-09-03T01:58:09.309Z,15.80
2018-09-03T01:59:09.457Z,16.70
2018-09-03T02:00:09.612Z,17.00
2018-09-03T02:01:09.762Z,16.80
2018-09-03T02:02:09.914Z,17.60
2018-09-03T02:03:10.067Z,17.70
2018-09-03T02:04:10.227Z,17.80
2018-09-03T02:05:10.373Z,17.20
2018-09-03T02:06:10.526Z,17.30
2018-09-03T02:07:10.677Z,17.70
2018-09-03T02:08:10.832Z,17.50
2018-09-03T02:09:10.983Z,17.20
2018-09-03T02:10:11.137Z,17.90
2018-09-03T02:11:11.289Z,17.90
2018-09-03T02:12:11.444Z,17.40
2018-09-03T02:13:11.596Z,17.40
2018-09-03T02:14:11.751Z,17.90
2018-09-03T02:15:11.906Z,17.90
2018-09-03T02:16:12.057Z,17.30
2018-09-03T02:17:12.210Z,17.00
2018-09-03T02:18:12.365Z,16.90
2018-09-03T02:19:12.520Z,18.00
2018-09-03T02:20:12.672Z,18.10
2018-09-03T02:21:12.826Z,17.80
2018-09-03T02:22:12.978Z,16.90
2018-09-03T02:23:13.133Z,18.10
2018-09-03T02:24:13.285Z,17.40
2018-09-03T02:25:13.438Z,18.00
2018-09-03T02:26:13.592Z,17.60
2018-09-03T02:27:13.743Z,16.90
2018-09-03T02:28:13.899Z,18.10
2018-09-03T02:29:14.051Z,18.00
2018-09-03T02:30:14.208Z,17.10
2018-09-03T02:31:14.360Z,17.40
2018-09-03T02:32:14.518Z,17.30
2018-09-03T02:33:14.666Z,17.90
2018-09-03T02:34:14.820Z,18.00
2018-09-03T02:35:14.972Z,18.10
2018-09-03T02:36:15.124Z,18.10
2018-09-03T02:37:15.278Z,17.30
2018-09-03T02:38:15.434Z,17.70
2018-09-03T02:39:15.585Z,17.70
2018-09-03T02:40:15.743Z,17.40
2018-09-03T02:41:15.894Z,18.10
2018-09-03T02:42:16.052Z,17.20
2018-09-03T02:43:16.201Z,17.30
2018-09-03T02:44:16.356Z,17.50
2018-09-03T02:45:16.509Z,17.30
2018-09-03T02:46:16.662Z,17.00
2018-09-03T02:47:16.812Z,17.00
2018-09-03T02:48:16.966Z,16.90
2018-09-03T02:49:17.118Z,16.80
2018-09-03T02:50:17.271Z,17.70
2018-09-03T02:51:17.425Z,17.90
2018-09-03T02:52:17.580Z,18.20
2018-09-03T02:53:17.734Z,17.50
2018-09-03T02:54:17.888Z,17.40
2018-09-03T02:55:18.043Z,17.50
2018-09-03T02:56:18.196Z,17.50
2018-09-03T02:57:18.352Z,17.90
2018-09-03T02:58:18.503Z,17.90
2018-09-03T02:59:18.656Z,17.10
2018-09-03T03:00:18.810Z,17.40
2018-09-03T03:01:18.963Z,17.30
2018-09-03T03:02:19.117Z,17.50
2018-09-03T03:03:19.271Z,17.40
2018-09-03T03:04:19.424Z,17.00
2018-09-03T03:05:19.576Z,17.40
2018-09-03T03:06:19.731Z,17.10
2018-09-03T03:07:19.885Z,16.80
2018-09-03T03:08:20.036Z,17.20
2018-09-03T03:09:20.193Z,18.30
2018-09-03T03:10:20.343Z,17.70
2018-09-03T03:11:20.499Z,17.30
2018-09-03T03:12:20.652Z,17.30
2018-09-03T03:13:20.808Z,17.70
2018-09-03T03:14:20.960Z,18.10
2018-09-03T03:15:21.112Z,16.80
2018-09-03T03:16:21.269Z,17.30
2018-09-03T03:17:21.423Z,17.50
2018-09-03T03:18:21.576Z,17.10
2018-09-03T03:19:21.729Z,16.60
2018-09-03T03:20:21.884Z,17.90
2018-09-03T03:21:22.041Z,17.80
2018-09-03T03:22:22.188Z,16.60
2018-09-03T03:23:22.342Z,16.50
2018-09-03T03:24:22.495Z,16.50
2018-09-03T03:25:22.645Z,17.80
2018-09-03T03:26:22.800Z,17.30
2018-09-03T03:27:22.952Z,17.20
2018-09-03T03:28:23.103Z,16.90
2018-09-03T03:29:23.256Z,17.70
2018-09-03T03:30:23.412Z,16.60
2018-09-03T03:31:23.568Z,17.40
2018-09-03T03:32:23.720Z,18.70
2018-09-03T03:33:23.873Z,18.40
2018-09-03T03:34:24.029Z,18.00
2018-09-03T03:35:24.182Z,18.30
2018-09-03T03:36:24.334Z,17.80
2018-09-03T03:37:24.488Z,18.30
2018-09-03T03:38:24.645Z,18.40
2018-09-03T03:39:24.796Z,18.50
2018-09-03T03:40:24.950Z,18.00
2018-09-03T03:41:25.104Z,18.10
2018-09-03T03:42:25.257Z,17.70
2018-09-03T03:43:25.411Z,18.10
2018-09-03T03:44:25.563Z,18.50
2018-09-03T03:45:25.715Z,17.90
2018-09-03T03:46:25.868Z,17.40
2018-09-03T03:47:26.024Z,16.90
2018-09-03T03:48:26.178Z,17.30
2018-09-03T03:49:26.330Z,17.40
2018-09-03T03:50:26.484Z,17.80
2018-09-03T03:51:26.637Z,18.00
2018-09-03T03:52:26.793Z,17.90
2018-09-03T03:53:26.945Z,17.30
2018-09-03T03:54:27.102Z,17.30
2018-09-03T03:55:27.253Z,17.10
2018-09-03T03:56:27.408Z,17.30
2018-09-03T03:57:27.561Z,17.20
2018-09-03T03:58:27.714Z,17.60
2018-09-03T03:59:27.871Z,17.60
2018-09-03T04:00:28.021Z,17.20
2018-09-03T04:01:28.175Z,18.90
2018-09-03T04:02:28.329Z,18.60
2018-09-03T04:03:28.484Z,17.20
2018-09-03T04:04:28.636Z,17.20
2018-09-03T04:05:28.793Z,17.20
2018-09-03T04:06:28.948Z,17.50
2018-09-03T04:07:29.102Z,17.30
2018-09-03T04:08:29.260Z,17.50
2018-09-03T04:09:29.407Z,16.80
2018-09-03T04:10:29.564Z,18.00
2018-09-03T04:11:29.714Z,17.30
2018-09-03T04:12:29.866Z,17.70
2018-09-03T04:13:30.023Z,17.50
2018-09-03T04:14:30.175Z,17.20
2018-09-03T04:15:30.329Z,17.00
2018-09-03T04:16:30.483Z,17.00
2018-09-03T04:17:30.636Z,18.10
2018-09-03T04:18:30.790Z,17.50
2018-09-03T04:19:30.943Z,17.10
2018-09-03T04:20:31.097Z,17.60
2018-09-03T04:21:31.252Z,17.00
2018-09-03T04:22:31.405Z,16.10
2018-09-03T04:23:31.561Z,17.40
2018-09-03T04:24:31.713Z,17.80
2018-09-03T04:25:31.866Z,18.10
2018-09-03T04:26:32.021Z,18.20
2018-09-03T04:27:32.173Z,17.90
2018-09-03T04:28:32.327Z,17.20
2018-09-03T04:29:32.482Z,17.60
2018-09-03T04:30:32.633Z,17.90
2018-09-03T04:31:32.787Z,18.80
2018-09-03T04:32:32.940Z,18.50
2018-09-03T04:33:33.093Z,17.90
2018-09-03T04:34:33.250Z,18.70
2018-09-03T04:35:33.410Z,18.90
2018-09-03T04:36:33.556Z,18.90
2018-09-03T04:37:33.709Z,18.20
2018-09-03T04:38:33.914Z,17.90
2018-09-03T04:39:34.016Z,18.80
2018-09-03T04:40:34.175Z,18.50
2018-09-03T04:41:34.326Z,18.90
2018-09-03T04:42:34.480Z,17.90
2018-09-03T04:43:34.631Z,18.90
2018-09-03T04:44:34.785Z,17.80
2018-09-03T04:45:34.938Z,16.80
2018-09-03T04:46:35.091Z,18.50
2018-09-03T04:47:35.244Z,17.40
2018-09-03T04:48:35.400Z,18.30
2018-09-03T04:49:35.556Z,17.30
2018-09-03T04:50:35.701Z,18.90
2018-09-03T04:51:35.864Z,18.70
2018-09-03T04:52:36.016Z,18.30
2018-09-03T04:53:36.169Z,18.50
2018-09-03T04:54:36.334Z,17.70
2018-09-03T04:55:36.479Z,18.30
2018-09-03T04:56:36.631Z,17.80
2018-09-03T04:57:36.784Z,17.70
2018-09-03T04:58:36.941Z,18.50
2018-09-03T04:59:37.098Z,18.40
2018-09-03T05:00:37.294Z,17.60
2018-09-03T05:01:37.433Z,19.10
2018-09-03T05:02:37.554Z,18.20
2018-09-03T05:03:37.707Z,18.40
2018-09-03T05:04:37.861Z,17.90
2018-09-03T05:05:38.033Z,19.10
2018-09-03T05:06:38.169Z,18.50
2018-09-03T05:07:38.322Z,17.70
2018-09-03T05:08:38.475Z,18.90
2018-09-03T05:09:38.629Z,18.40
2018-09-03T05:10:38.781Z,17.40
2018-09-03T05:11:38.974Z,18.70
2018-09-03T05:12:39.097Z,18.60
2018-09-03T05:13:39.243Z,19.00
2018-09-03T05:14:39.397Z,19.40
2018-09-03T05:15:39.552Z,18.30
2018-09-03T05:16:39.707Z,18.20
2018-09-03T05:17:39.861Z,18.60
2018-09-03T05:18:40.014Z,18.80
2018-09-03T05:19:40.168Z,19.00
2018-09-03T05:20:40.321Z,18.40
2018-09-03T05:21:40.472Z,17.90
2018-09-03T05:22:40.625Z,18.90
2018-09-03T05:23:40.784Z,19.70
2018-09-03T05:24:40.933Z,19.20
2018-09-03T05:25:41.090Z,18.90
2018-09-03T05:26:41.237Z,18.90
2018-09-03T05:27:41.393Z,19.00
2018-09-03T05:28:41.544Z,18.00
2018-09-03T05:29:41.700Z,18.70
2018-09-03T05:30:41.852Z,18.70
2018-09-03T05:31:42.007Z,18.30
2018-09-03T05:32:42.160Z,19.40
2018-09-03T05:33:42.312Z,18.90
2018-09-03T05:34:42.466Z,18.80
2018-09-03T05:35:42.625Z,17.50
2018-09-03T05:36:42.774Z,18.80
2018-09-03T05:37:42.927Z,17.60
2018-09-03T05:38:43.080Z,17.30
2018-09-03T05:39:43.272Z,18.80
2018-09-03T05:40:43.388Z,18.10
2018-09-03T05:41:43.541Z,17.70
2018-09-03T05:42:43.701Z,18.50
2018-09-03T05:43:43.996Z,18.20
2018-09-03T05:44:44.007Z,17.90
2018-09-03T05:45:44.159Z,18.00
2018-09-03T05:46:44.315Z,17.50
2018-09-03T05:47:44.473Z,18.00
2018-09-03T05:48:44.620Z,17.90
2018-09-03T05:49:44.773Z,17.50
2018-09-03T05:50:45.029Z,17.40
2018-09-03T05:51:45.077Z,17.20
2018-09-03T05:52:45.233Z,17.80
2018-09-03T05:53:45.384Z,17.40
2018-09-03T05:54:45.540Z,17.40
2018-09-03T05:55:45.694Z,17.00
2018-09-03T05:56:45.845Z,17.90
2018-09-03T05:57:46.003Z,16.60
2018-09-03T05:58:46.157Z,18.20
2018-09-03T05:59:46.310Z,17.70
2018-09-03T06:00:46.467Z,17.90
2018-09-03T06:01:46.617Z,17.40
2018-09-03T06:02:46.774Z,17.20
2018-09-03T06:03:46.923Z,16.90
2018-09-03T06:04:47.100Z,17.20
2018-09-03T06:05:47.231Z,16.40
2018-09-03T06:06:47.383Z,17.80
2018-09-03T06:07:47.533Z,17.10
2018-09-03T06:08:47.686Z,16.70
2018-09-03T06:09:47.842Z,17.40
2018-09-03T06:10:47.997Z,17.60
2018-09-03T06:11:48.148Z,17.30
2018-09-03T06:12:48.301Z,18.10
2018-09-03T06:13:48.453Z,17.20
2018-09-03T06:14:48.609Z,16.90
2018-09-03T06:15:48.762Z,17.30
2018-09-03T06:16:48.913Z,17.30
2018-09-03T06:17:49.102Z,17.60
2018-09-03T06:18:49.218Z,17.50
2018-09-03T06:19:49.379Z,17.40
2018-09-03T06:20:49.526Z,17.00
2018-09-03T06:21:49.680Z,17.10
2018-09-03T06:22:49.835Z,18.30
2018-09-03T06:23:49.988Z,18.80
2018-09-03T06:24:50.140Z,17.30
2018-09-03T06:25:50.296Z,16.40
2018-09-03T06:26:50.449Z,16.60
2018-09-03T06:27:50.602Z,16.10
2018-09-03T06:28:50.759Z,15.50
2018-09-03T06:29:50.913Z,16.50
2018-09-03T06:30:51.066Z,18.40
2018-09-03T06:31:51.220Z,19.20
2018-09-03T06:32:51.377Z,18.80
2018-09-03T06:33:51.531Z,17.80
2018-09-03T06:34:51.687Z,17.40
2018-09-03T06:35:51.866Z,17.00
2018-09-03T06:36:51.989Z,17.90
2018-09-03T06:37:52.146Z,16.40
2018-09-03T06:38:52.300Z,16.50
2018-09-03T06:39:52.456Z,15.80
2018-09-03T06:40:52.608Z,16.10
2018-09-03T06:41:52.763Z,14.50
2018-09-03T06:42:52.914Z,15.50
2018-09-03T06:43:53.073Z,15.00
2018-09-03T06:44:53.227Z,15.30
2018-09-03T06:45:53.403Z,15.50
2018-09-03T06:46:53.535Z,15.70
2018-09-03T06:47:53.689Z,14.90
2018-09-03T06:48:53.842Z,15.60
2018-09-03T06:49:53.997Z,15.90
2018-09-03T06:50:54.153Z,16.00
2018-09-03T06:51:54.307Z,15.90
2018-09-03T06:52:54.462Z,15.50
2018-09-03T06:53:54.616Z,16.40
2018-09-03T06:54:54.768Z,15.90
2018-09-03T06:55:54.922Z,15.40
2018-09-03T06:56:55.075Z,15.30
2018-09-03T06:57:55.229Z,16.10
2018-09-03T06:58:55.383Z,15.50
2018-09-03T06:59:55.540Z,15.30
2018-09-03T07:00:55.694Z,15.30
2018-09-03T07:01:55.846Z,16.00
2018-09-03T07:02:56.002Z,17.40
2018-09-03T07:03:56.155Z,16.90
2018-09-03T07:04:56.309Z,16.30
2018-09-03T07:05:56.463Z,15.90
2018-09-03T07:06:56.620Z,16.10
2018-09-03T07:07:56.774Z,16.10
2018-09-03T07:08:56.925Z,16.80
2018-09-03T07:09:57.082Z,15.70
2018-09-03T07:10:57.238Z,15.20
2018-09-03T07:11:57.391Z,16.00
2018-09-03T07:12:57.546Z,15.40
2018-09-03T07:13:57.701Z,15.50
2018-09-03T07:14:57.855Z,16.10
2018-09-03T07:15:58.010Z,15.50
2018-09-03T07:16:58.161Z,15.80
2018-09-03T07:17:58.316Z,15.60
2018-09-03T07:18:58.474Z,15.50
2018-09-03T07:19:58.628Z,15.20
2018-09-03T07:20:58.783Z,14.60
2018-09-03T07:21:58.936Z,15.20
2018-09-03T07:22:59.092Z,15.10
2018-09-03T07:23:59.246Z,14.90
2018-09-03T07:24:59.401Z,15.00
2018-09-03T07:25:59.559Z,14.90
2018-09-03T07:26:59.710Z,14.70
2018-09-03T07:27:59.865Z,15.70
2018-09-03T07:29:00.090Z,15.70
2018-09-03T07:30:00.175Z,15.40
2018-09-03T07:31:00.329Z,15.00
2018-09-03T07:32:00.485Z,14.30
2018-09-03T07:33:00.639Z,15.00
2018-09-03T07:34:00.792Z,15.60
2018-09-03T07:35:01.002Z,14.70
2018-09-03T07:36:01.103Z,15.20
2018-09-03T07:37:01.257Z,16.40
2018-09-03T07:38:01.412Z,15.10
2018-09-03T07:39:01.568Z,15.20
2018-09-03T07:40:01.721Z,15.60
2018-09-03T07:41:01.875Z,16.10
2018-09-03T07:42:02.032Z,16.20
2018-09-03T07:43:02.185Z,15.20
2018-09-03T07:44:02.390Z,14.90
2018-09-03T07:45:02.496Z,14.90
2018-09-03T07:46:02.657Z,14.70
2018-09-03T07:47:02.806Z,15.00
2018-09-03T07:48:02.959Z,14.40
2018-09-03T07:49:03.154Z,14.70
2018-09-03T07:50:03.272Z,14.50
2018-09-03T07:51:03.491Z,14.00
2018-09-03T07:52:03.584Z,14.60
2018-09-03T07:53:03.747Z,15.20
2018-09-03T07:54:03.903Z,14.60
2018-09-03T07:55:04.106Z,14.80
2018-09-03T07:56:04.212Z,14.60
2018-09-03T07:57:04.365Z,14.20
2018-09-03T07:58:04.520Z,13.80
2018-09-03T07:59:04.674Z,14.70
2018-09-03T08:00:04.831Z,15.30
2018-09-03T08:01:05.028Z,14.60
2018-09-03T08:02:05.140Z,14.50
2018-09-03T08:03:05.288Z,15.00
2018-09-03T08:04:05.443Z,15.00
2018-09-03T08:05:05.643Z,14.90
2018-09-03T08:06:05.754Z,14.00
2018-09-03T08:07:05.907Z,14.20
2018-09-03T08:08:06.060Z,15.00
2018-09-03T08:09:06.213Z,14.50
2018-09-03T08:10:06.367Z,14.50
2018-09-03T08:11:06.521Z,14.80
2018-09-03T08:12:06.676Z,14.90
2018-09-03T08:13:06.835Z,15.20
2018-09-03T08:14:06.988Z,14.50
2018-09-03T08:15:07.144Z,14.10
2018-09-03T08:16:07.297Z,14.60
2018-09-03T08:17:07.451Z,14.40
2018-09-03T08:18:07.607Z,15.20
2018-09-03T08:19:07.760Z,14.50
2018-09-03T08:20:07.979Z,14.70
2018-09-03T08:21:08.071Z,14.50
2018-09-03T08:22:08.223Z,15.80
2018-09-03T08:23:08.378Z,15.70
2018-09-03T08:24:08.531Z,15.30
2018-09-03T08:25:08.687Z,14.40
2018-09-03T08:26:08.840Z,14.80
2018-09-03T08:27:08.999Z,15.00
2018-09-03T08:28:09.148Z,14.20
2018-09-03T08:29:09.304Z,15.00
2018-09-03T08:30:09.481Z,15.30
2018-09-03T08:31:09.616Z,14.70
2018-09-03T08:32:09.770Z,14.90
2018-09-03T08:33:09.925Z,15.20
2018-09-03T08:34:10.081Z,15.50
2018-09-03T08:35:10.235Z,14.80
2018-09-03T08:36:10.392Z,15.50
2018-09-03T08:37:10.545Z,14.50
2018-09-03T08:38:10.698Z,14.90
2018-09-03T08:39:10.851Z,15.30
2018-09-03T08:40:11.005Z,15.10
2018-09-03T08:41:11.158Z,15.20
2018-09-03T08:42:11.313Z,15.20
2018-09-03T08:43:11.468Z,15.00
2018-09-03T08:44:11.619Z,15.60
2018-09-03T08:45:11.776Z,15.30
2018-09-03T08:46:11.930Z,15.30
2018-09-03T08:47:12.086Z,15.20
2018-09-03T08:48:12.238Z,15.80
2018-09-03T08:49:12.394Z,16.10
2018-09-03T08:50:12.575Z,16.20
2018-09-03T08:51:12.702Z,15.60
2018-09-03T08:52:12.858Z,15.00
2018-09-03T08:53:13.012Z,15.10
2018-09-03T08:54:13.165Z,15.80
2018-09-03T08:55:13.323Z,16.10
2018-09-03T08:56:13.473Z,15.80
2018-09-03T08:57:13.630Z,16.20
2018-09-03T08:58:13.784Z,16.50
2018-09-03T08:59:13.938Z,16.40
2018-09-03T09:00:14.093Z,16.10
2018-09-03T09:01:14.248Z,16.50
2018-09-03T09:02:14.401Z,16.10
2018-09-03T09:03:14.557Z,16.20
2018-09-03T09:04:14.712Z,16.40
2018-09-03T09:05:14.872Z,15.90
2018-09-03T09:06:15.026Z,15.20
2018-09-03T09:07:15.177Z,15.30
2018-09-03T09:08:15.339Z,15.50
2018-09-03T09:09:15.488Z,16.30
2018-09-03T09:10:15.646Z,16.20
2018-09-03T09:11:15.799Z,16.10
2018-09-03T09:12:15.956Z,15.90
2018-09-03T09:13:16.099Z,15.70
2018-09-03T09:14:16.257Z,15.10
2018-09-03T09:15:16.413Z,15.80
2018-09-03T09:16:16.571Z,15.80
2018-09-03T09:17:16.723Z,15.30
2018-09-03T09:18:16.876Z,15.00
2018-09-03T09:19:17.038Z,15.60
2018-09-03T09:20:17.189Z,16.00
2018-09-03T09:21:17.340Z,16.50
2018-09-03T09:22:17.494Z,14.90
2018-09-03T09:23:17.649Z,14.80
2018-09-03T09:24:17.832Z,15.70
2018-09-03T09:25:17.959Z,16.40
2018-09-03T09:26:18.115Z,15.70
2018-09-03T09:27:18.270Z,15.80
2018-09-03T09:28:18.424Z,15.60
2018-09-03T09:29:18.579Z,15.50
2018-09-03T09:30:18.733Z,15.30
2018-09-03T09:31:18.891Z,15.80
2018-09-03T09:32:19.047Z,15.50
2018-09-03T09:33:19.201Z,15.40
2018-09-03T09:34:19.355Z,16.00
2018-09-03T09:35:19.511Z,16.10
2018-09-03T09:36:19.666Z,16.20
2018-09-03T09:37:19.820Z,16.20
2018-09-03T09:38:19.975Z,15.90
2018-09-03T09:39:20.129Z,15.90
2018-09-03T09:40:20.284Z,15.80
2018-09-03T09:41:20.493Z,17.10
2018-09-03T09:42:20.593Z,17.60
2018-09-03T09:43:20.747Z,16.40
2018-09-03T09:44:20.902Z,16.80
2018-09-03T09:45:21.057Z,17.40
2018-09-03T09:46:21.211Z,16.80
2018-09-03T09:47:21.368Z,16.70
2018-09-03T09:48:21.578Z,15.10
2018-09-03T09:49:21.680Z,14.90
2018-09-03T09:50:21.833Z,15.90
2018-09-03T09:51:21.989Z,15.60
2018-09-03T09:52:22.148Z,16.20
2018-09-03T09:53:22.300Z,16.10
2018-09-03T09:54:22.456Z,15.00
2018-09-03T09:55:22.612Z,15.80
2018-09-03T09:56:22.769Z,15.60
2018-09-03T09:57:22.931Z,14.10
2018-09-03T09:58:23.081Z,14.70
2018-09-03T09:59:23.232Z,15.20
2018-09-03T10:00:23.389Z,15.80
2018-09-03T10:01:23.541Z,14.90
2018-09-03T10:02:23.697Z,15.40
2018-09-03T10:03:23.851Z,15.80
2018-09-03T10:04:24.021Z,14.80
2018-09-03T10:05:24.161Z,14.90
2018-09-03T10:06:24.315Z,14.00
2018-09-03T10:07:24.510Z,14.70
2018-09-03T10:08:24.627Z,14.60
2018-09-03T10:09:24.779Z,14.90
2018-09-03T10:10:24.934Z,13.40
2018-09-03T10:11:25.090Z,14.40
2018-09-03T10:12:25.241Z,14.40
2018-09-03T10:13:25.396Z,14.50
2018-09-03T10:14:25.552Z,14.40
2018-09-03T10:15:25.707Z,14.80
2018-09-03T10:16:25.860Z,14.30
2018-09-03T10:17:26.015Z,14.80
2018-09-03T10:18:26.173Z,14.90
2018-09-03T10:19:26.327Z,14.60
2018-09-03T10:20:26.483Z,15.00
2018-09-03T10:21:26.638Z,14.70
2018-09-03T10:22:26.792Z,15.30
2018-09-03T10:23:26.946Z,15.60
2018-09-03T10:24:27.102Z,15.60
2018-09-03T10:25:27.259Z,15.10
2018-09-03T10:26:27.421Z,16.10
2018-09-03T10:27:27.568Z,15.50
2018-09-03T10:28:27.768Z,15.20
2018-09-03T10:29:27.875Z,16.10
2018-09-03T10:30:28.030Z,15.50
2018-09-03T10:31:28.184Z,15.80
2018-09-03T10:32:28.341Z,14.90
2018-09-03T10:33:28.494Z,15.50
2018-09-03T10:34:28.651Z,15.00
2018-09-03T10:35:28.802Z,15.60
2018-09-03T10:36:28.960Z,15.10
2018-09-03T10:37:29.115Z,15.10
2018-09-03T10:38:29.270Z,14.90
2018-09-03T10:39:29.425Z,15.20
2018-09-03T10:40:29.579Z,15.60
2018-09-03T10:41:29.735Z,15.30
2018-09-03T10:42:29.889Z,15.50
2018-09-03T10:43:30.046Z,14.50
2018-09-03T10:44:30.200Z,14.70
2018-09-03T10:45:30.354Z,14.80
2018-09-03T10:46:30.511Z,14.30
2018-09-03T10:47:30.729Z,14.60
2018-09-03T10:48:30.822Z,14.20
2018-09-03T10:49:30.975Z,14.30
2018-09-03T10:50:31.131Z,14.30
2018-09-03T10:51:31.286Z,14.80
2018-09-03T10:52:31.440Z,14.20
2018-09-03T10:53:31.635Z,14.30
2018-09-03T10:54:31.753Z,14.20
2018-09-03T10:55:31.905Z,14.10
2018-09-03T10:56:32.061Z,14.40
2018-09-03T10:57:32.219Z,13.80
2018-09-03T10:58:32.375Z,13.60
2018-09-03T10:59:32.527Z,13.40
2018-09-03T11:00:32.680Z,14.10
2018-09-03T11:01:32.898Z,13.30
2018-09-03T11:02:32.993Z,12.80
2018-09-03T11:03:33.149Z,12.70
2018-09-03T11:04:33.305Z,13.30
2018-09-03T11:05:33.459Z,14.40
2018-09-03T11:06:33.614Z,13.80
2018-09-03T11:07:33.770Z,13.30
2018-09-03T11:08:33.927Z,13.90
2018-09-03T11:09:34.082Z,13.80
2018-09-03T11:10:34.236Z,13.60
2018-09-03T11:11:34.392Z,13.00
2018-09-03T11:12:34.547Z,13.20
2018-09-03T11:13:34.711Z,13.70
2018-09-03T11:14:34.856Z,12.90
2018-09-03T11:15:35.013Z,13.80
2018-09-03T11:16:35.164Z,12.80
2018-09-03T11:17:35.318Z,13.30
2018-09-03T11:18:35.484Z,13.60
2018-09-03T11:19:35.628Z,14.00
2018-09-03T11:20:35.786Z,13.90
2018-09-03T11:21:36.127Z,13.70
2018-09-03T11:22:36.091Z,13.70
2018-09-03T11:23:36.262Z,13.40
2018-09-03T11:24:36.417Z,13.20
2018-09-03T11:25:36.573Z,13.30
2018-09-03T11:26:36.729Z,14.20
2018-09-03T11:27:36.882Z,13.80
2018-09-03T11:28:37.041Z,14.10
2018-09-03T11:29:37.193Z,13.30
2018-09-03T11:30:37.348Z,13.80
2018-09-03T11:31:37.507Z,13.60
2018-09-03T11:32:37.657Z,13.10
2018-09-03T11:33:37.815Z,13.50
2018-09-03T11:34:37.967Z,13.50
2018-09-03T11:35:38.124Z,13.30
2018-09-03T11:36:38.278Z,12.40
2018-09-03T11:37:38.436Z,13.40
2018-09-03T11:38:38.593Z,13.00
2018-09-03T11:39:38.746Z,13.00
2018-09-03T11:40:38.903Z,12.90
2018-09-03T11:41:39.059Z,12.80
2018-09-03T11:42:39.213Z,12.80
2018-09-03T11:43:39.368Z,13.00
2018-09-03T11:44:39.526Z,12.90
2018-09-03T11:45:39.682Z,13.10
2018-09-03T11:46:39.833Z,12.30
2018-09-03T11:47:39.992Z,12.30
2018-09-03T11:48:40.144Z,11.60
2018-09-03T11:49:40.299Z,12.50
2018-09-03T11:50:40.458Z,12.30
2018-09-03T11:51:40.614Z,12.70
2018-09-03T11:52:40.764Z,12.90
2018-09-03T11:53:40.929Z,12.60
2018-09-03T11:54:41.082Z,13.10
2018-09-03T11:55:41.240Z,12.10
2018-09-03T11:56:41.395Z,12.30
2018-09-03T11:57:41.548Z,12.90
2018-09-03T11:58:41.706Z,12.30
2018-09-03T11:59:41.858Z,13.40
2018-09-03T12:00:42.016Z,13.50
2018-09-03T12:01:42.170Z,13.20
2018-09-03T12:02:42.325Z,13.20
2018-09-03T12:03:42.479Z,12.70
2018-09-03T12:04:42.636Z,13.50
2018-09-03T12:05:42.809Z,13.30
2018-09-03T12:06:43.014Z,13.70
2018-09-03T12:07:43.121Z,14.00
2018-09-03T12:08:43.276Z,13.40
2018-09-03T12:09:43.430Z,13.60
2018-09-03T12:10:43.586Z,14.10
2018-09-03T12:11:43.743Z,13.60
2018-09-03T12:12:43.901Z,13.80
2018-09-03T12:13:44.055Z,13.80
2018-09-03T12:14:44.208Z,13.60
2018-09-03T12:15:44.367Z,13.60
2018-09-03T12:16:44.517Z,13.50
2018-09-03T12:17:44.673Z,13.60
2018-09-03T12:18:44.828Z,14.70
2018-09-03T12:19:44.984Z,13.70
2018-09-03T12:20:45.152Z,14.30
2018-09-03T12:21:45.299Z,13.90
2018-09-03T12:22:45.454Z,13.80
2018-09-03T12:23:45.606Z,13.80
2018-09-03T12:24:45.763Z,14.30
2018-09-03T12:25:45.918Z,13.90
2018-09-03T12:26:46.073Z,14.20
2018-09-03T12:27:46.249Z,14.60
2018-09-03T12:28:46.383Z,14.50
2018-09-03T12:29:46.541Z,15.30
2018-09-03T12:30:46.697Z,14.40
2018-09-03T12:31:46.850Z,15.00
2018-09-03T12:32:47.005Z,14.10
2018-09-03T12:33:47.159Z,13.90
2018-09-03T12:34:47.316Z,14.00
2018-09-03T12:35:47.471Z,14.80
2018-09-03T12:36:47.628Z,14.90
2018-09-03T12:37:47.780Z,14.60
2018-09-03T12:38:47.935Z,14.90
2018-09-03T12:39:48.093Z,14.60
2018-09-03T12:40:48.247Z,14.20
2018-09-03T12:41:48.403Z,14.50
2018-09-03T12:42:48.560Z,14.60
2018-09-03T12:43:48.713Z,14.40
2018-09-03T12:44:48.868Z,14.30
2018-09-03T12:45:49.023Z,14.60
2018-09-03T12:46:49.183Z,14.10
2018-09-03T12:47:49.335Z,14.20
2018-09-03T12:48:49.491Z,14.40
2018-09-03T12:49:49.662Z,14.70
2018-09-03T12:50:49.816Z,14.80
2018-09-03T12:51:49.959Z,14.20
2018-09-03T12:52:50.116Z,15.10
2018-09-03T12:53:50.276Z,14.70
2018-09-03T12:54:50.429Z,14.80